Time;durP1;ratioP1;P1;durP2;ratioP2;P2;SDS_P1;SDS_P2;PMS_P1;PMS_P2;Temp;Humidity;BMP_temperature;BMP_pressure;BME280_temperature;BME280_humidity;BME280_pressure;Samples;Min_cycle;Max_cycle;Signal;HPM_P1;HPM_P2
2022/05/30 00:01:28;;;;;;;16.05;5.82;;;;;;;8.92;70.59;100063.72;5018350;28;20045;-77
2022/05/30 00:03:55;;;;;;;11.70;5.35;;;;;;;8.85;71.56;100047.13;5036045;28;20057;-78
2022/05/30 00:06:23;;;;;;;14.55;6.22;;;;;;;8.88;71.91;100060.19;5035695;28;20060;-78
2022/05/30 00:08:50;;;;;;;10.98;5.72;;;;;;;8.89;71.93;100055.88;5036124;28;20049;-78
2022/05/30 00:11:18;;;;;;;12.25;5.50;;;;;;;8.89;72.39;100074.13;5035536;28;20085;-79
2022/05/30 00:13:46;;;;;;;8.88;5.20;;;;;;;8.87;72.33;100062.78;5035771;28;20053;-79
2022/05/30 00:16:17;;;;;;;8.90;4.80;;;;;;;8.84;72.73;100063.63;5036029;28;20073;-78
2022/05/30 00:18:45;;;;;;;11.57;5.68;;;;;;;8.73;72.29;100047.84;5022953;28;20543;-78
2022/05/30 00:21:12;;;;;;;10.07;5.10;;;;;;;8.80;72.34;100073.13;5034896;28;20049;-79
2022/05/30 00:23:40;;;;;;;11.65;5.28;;;;;;;8.73;72.32;100071.31;5035718;28;20053;-79
2022/05/30 00:26:08;;;;;;;8.32;4.88;;;;;;;8.73;72.28;100071.31;5035261;28;20457;-78
2022/05/30 00:28:36;;;;;;;10.35;4.90;;;;;;;8.65;72.66;100074.63;5036221;28;20046;-80
2022/05/30 00:31:07;;;;;;;9.52;4.95;;;;;;;8.64;72.57;100084.16;5017920;28;20046;-78
2022/05/30 00:33:34;;;;;;;10.65;5.07;;;;;;;8.43;72.61;100053.47;5037992;28;20099;-78
2022/05/30 00:36:01;;;;;;;6.72;4.20;;;;;;;8.42;73.08;100062.16;5024194;28;20537;-81
2022/05/30 00:38:27;;;;;;;9.15;4.90;;;;;;;8.63;73.32;100092.84;5035709;28;20053;-78
2022/05/30 00:40:54;;;;;;;10.85;4.35;;;;;;;8.58;72.58;100073.66;5001669;28;20050;-79
2022/05/30 00:43:33;;;;;;;7.05;4.13;;;;;;;8.50;72.45;100054.47;5034758;28;20519;-78
2022/05/30 00:46:02;;;;;;;8.05;4.45;;;;;;;8.49;72.82;100050.09;5017537;28;20143;-78
2022/05/30 00:48:41;;;;;;;8.90;4.10;;;;;;;8.65;72.41;100088.53;5007570;28;20152;-77
2022/05/30 00:51:14;;;;;;;6.22;4.30;;;;;;;8.44;72.15;100062.19;5011480;28;20518;-79
2022/05/30 00:53:44;;;;;;;7.30;4.22;;;;;;;8.65;72.84;100092.84;5015568;28;20133;-77
2022/05/30 00:56:13;;;;;;;8.52;4.00;;;;;;;8.55;73.24;100081.44;5015200;28;20058;-78
2022/05/30 00:58:48;;;;;;;5.80;4.15;;;;;;;8.65;73.00;100098.94;5015118;28;20549;-78
2022/05/30 01:01:17;;;;;;;8.15;4.53;;;;;;;8.67;72.49;100102.47;4997890;28;20053;-79
2022/05/30 01:06:57;;;;;;;5.00;4.20;;;;;;;8.76;72.46;100106.94;4997566;28;20132;-78
2022/05/30 01:09:45;;;;;;;5.95;4.07;;;;;;;8.82;72.06;100113.09;4997432;28;20054;-78
2022/05/30 01:12:13;;;;;;;8.68;4.32;;;;;;;8.91;72.19;100121.91;5014508;28;20148;-78
2022/05/30 01:14:43;;;;;;;8.45;4.40;;;;;;;8.89;72.02;100110.59;4997249;28;20085;-79
2022/05/30 01:17:14;;;;;;;7.40;4.70;;;;;;;8.91;71.60;100101.94;5015207;28;20069;-79
2022/05/30 01:19:59;;;;;;;9.68;4.35;;;;;;;8.95;71.58;100102.84;5015539;28;20054;-79
2022/05/30 01:22:47;;;;;;;8.93;4.90;;;;;;;8.97;71.96;100104.63;4998186;28;20053;-79
2022/05/30 01:25:35;;;;;;;7.75;4.40;;;;;;;9.00;71.56;100106.38;4997619;28;20064;-79
2022/05/30 01:28:37;;;;;;;7.03;4.25;;;;;;;9.00;71.40;100109.88;4997084;28;20053;-78
2022/05/30 01:31:05;;;;;;;8.25;4.85;;;;;;;9.09;71.24;100113.47;4997426;28;20120;-77
2022/05/30 01:33:33;;;;;;;7.50;3.90;;;;;;;9.16;71.14;100124.00;4997204;28;20054;-77
2022/05/30 01:36:00;;;;;;;7.28;4.30;;;;;;;9.26;71.38;100111.06;4997479;28;20086;-79
2022/05/30 01:38:28;;;;;;;8.63;4.70;;;;;;;9.32;71.35;100116.38;4997116;28;20124;-79
2022/05/30 01:40:59;;;;;;;7.95;4.25;;;;;;;9.39;70.75;100116.44;4980407;28;20050;-78
2022/05/30 01:43:27;;;;;;;7.28;4.65;;;;;;;9.35;70.72;100104.22;4996672;28;20100;-78
2022/05/30 01:46:09;;;;;;;6.88;4.30;;;;;;;9.46;70.60;100127.81;4996519;28;20065;-78
2022/05/30 01:48:43;;;;;;;8.10;4.40;;;;;;;9.46;70.73;100120.00;4964362;28;20470;-78
2022/05/30 01:51:10;;;;;;;10.32;4.45;;;;;;;9.56;70.38;100129.69;4996018;28;20060;-79
2022/05/30 01:53:37;;;;;;;9.40;4.53;;;;;;;9.76;69.98;100134.25;4980331;28;20157;-78
2022/05/30 01:56:22;;;;;;;9.60;4.35;;;;;;;9.70;69.43;100101.16;5013810;28;20053;-79
2022/05/30 01:58:52;;;;;;;10.05;4.35;;;;;;;9.96;68.77;100135.34;4996205;28;20060;-77
2022/05/30 02:01:26;;;;;;;11.20;4.60;;;;;;;10.16;68.31;100132.06;5012605;28;20049;-77
2022/05/30 02:03:57;;;;;;;17.73;4.97;;;;;;;10.31;68.66;100142.66;4980415;28;20049;-77
2022/05/30 02:06:26;;;;;;;12.68;4.20;;;;;;;10.48;67.75;100136.72;4995624;28;20053;-77
2022/05/30 02:08:54;;;;;;;15.50;4.85;;;;;;;11.12;66.03;100139.78;4979785;28;20058;-79
2022/05/30 02:11:26;;;;;;;14.32;4.55;;;;;;;13.98;58.93;100134.53;4995412;28;20046;-78
2022/05/30 02:14:03;;;;;;;14.10;5.00;;;;;;;17.32;49.45;100112.63;4996082;28;20049;-78
2022/05/30 02:19:21;;;;;;;8.38;3.90;;;;;;;21.33;40.85;100129.63;5011942;28;19956;-78
2022/05/30 02:21:49;;;;;;;13.27;4.05;;;;;;;22.87;37.27;100119.09;5011881;28;20046;-78
2022/05/30 02:24:16;;;;;;;11.20;3.65;;;;;;;24.10;34.55;100124.16;5017164;28;20498;-79
2022/05/30 02:26:43;;;;;;;13.82;4.13;;;;;;;24.99;32.65;100123.34;5033001;28;20076;-78
2022/05/30 02:29:15;;;;;;;8.07;3.65;;;;;;;25.85;31.34;100135.63;5015116;28;20053;-79
2022/05/30 02:31:52;;;;;;;10.68;3.90;;;;;;;26.74;29.57;100122.53;5017977;28;20045;-79
2022/05/30 02:37:04;;;;;;;12.88;3.45;;;;;;;28.13;26.70;100116.63;4995617;28;20042;-80
2022/05/30 02:39:34;;;;;;;10.38;3.80;;;;;;;28.98;25.88;100130.66;4995499;28;20054;-80
2022/05/30 02:42:04;;;;;;;8.90;3.88;;;;;;;29.92;24.70;100118.63;5012713;28;20466;-80
2022/05/30 02:44:34;;;;;;;10.07;3.72;;;;;;;30.79;23.42;100130.97;4999234;28;20050;-78
2022/05/30 02:47:01;;;;;;;6.95;3.10;;;;;;;31.35;22.53;100124.00;4983710;28;20115;-79
2022/05/30 02:49:30;;;;;;;10.70;3.83;;;;;;;31.78;21.71;100123.28;4978981;28;20423;-79
2022/05/30 02:51:59;;;;;;;6.68;3.20;;;;;;;32.11;21.22;100124.22;4999393;28;20053;-79
2022/05/30 02:54:27;;;;;;;8.35;3.45;;;;;;;32.48;20.77;100121.97;5008409;28;20506;-79
2022/05/30 02:57:23;;;;;;;11.60;3.88;;;;;;;32.96;20.22;100140.47;5023175;28;20151;-79
2022/05/30 02:59:51;;;;;;;7.65;3.45;;;;;;;33.23;20.06;100139.09;5014570;28;20049;-79
2022/05/30 03:02:18;;;;;;;9.23;3.60;;;;;;;33.44;19.28;100133.63;5014332;28;20053;-79
2022/05/30 03:04:47;;;;;;;8.45;3.75;;;;;;;34.27;18.87;100126.25;5014693;28;20149;-79
2022/05/30 03:07:14;;;;;;;7.85;3.53;;;;;;;34.82;18.17;100121.09;5014804;28;20060;-78
2022/05/30 03:09:44;;;;;;;10.68;3.58;;;;;;;35.69;17.17;100132.75;5014438;28;20053;-80
2022/05/30 03:12:18;;;;;;;7.90;3.60;;;;;;;36.77;16.60;100143.78;4998365;28;20050;-80
2022/05/30 03:14:45;;;;;;;5.80;3.50;;;;;;;37.47;15.41;100139.19;5018798;28;20061;-78
2022/05/30 03:17:11;;;;;;;5.95;3.33;;;;;;;38.01;15.12;100141.63;5003205;28;20081;-79
2022/05/30 03:19:44;;;;;;;7.25;3.97;;;;;;;38.59;14.60;100149.97;4999438;28;20054;-79
2022/05/30 03:22:12;;;;;;;5.45;3.30;;;;;;;39.12;14.14;100143.13;5034089;28;20069;-78
2022/05/30 03:24:58;;;;;;;4.15;3.17;;;;;;;39.70;13.51;100141.09;5020765;28;20102;-78
2022/05/30 03:27:26;;;;;;;7.47;3.28;;;;;;;40.46;12.71;100158.66;5000493;28;20050;-81
2022/05/30 03:29:53;;;;;;;8.50;3.50;;;;;;;40.88;12.59;100132.69;5016169;28;20419;-80
2022/05/30 03:32:20;;;;;;;8.82;3.58;;;;;;;40.75;12.70;100159.84;4997600;28;20050;-79
2022/05/30 03:34:47;;;;;;;8.15;3.67;;;;;;;41.23;12.36;100163.19;4979159;28;20093;-80
2022/05/30 03:37:14;;;;;;;6.78;3.08;;;;;;;41.41;11.71;100145.50;4978858;28;20522;-80
2022/05/30 03:39:47;;;;;;;8.38;3.72;;;;;;;41.91;11.80;100166.69;4978651;28;20116;-78
2022/05/30 03:42:47;;;;;;;7.85;3.33;;;;;;;41.71;11.95;100166.44;5008617;28;20046;-79
2022/05/30 03:45:22;;;;;;;5.05;3.20;;;;;;;41.33;11.71;100166.50;4978734;28;20137;-79
2022/05/30 03:47:49;;;;;;;5.78;3.25;;;;;;;40.78;12.33;100175.06;4978784;28;20061;-79
2022/05/30 03:50:19;;;;;;;6.65;3.50;;;;;;;40.65;12.23;100178.38;4996033;28;20106;-78
2022/05/30 03:52:47;;;;;;;10.50;4.05;;;;;;;40.85;12.38;100171.41;4997580;28;20057;-79
2022/05/30 03:55:20;;;;;;;5.25;3.47;;;;;;;41.11;11.86;100176.47;4979996;28;20062;-79
2022/05/30 03:57:48;;;;;;;6.03;3.72;;;;;;;41.01;12.23;100175.03;4978828;28;20068;-79
2022/05/30 04:00:19;;;;;;;6.85;3.70;;;;;;;40.78;12.22;100172.31;4979627;28;20061;-77
2022/05/30 04:02:51;;;;;;;6.53;3.10;;;;;;;41.33;11.75;100191.16;5001318;28;20045;-77
2022/05/30 04:05:20;;;;;;;10.63;3.70;;;;;;;41.23;11.71;100185.09;5001770;28;20116;-78
2022/05/30 04:07:46;;;;;;;7.90;3.30;;;;;;;40.48;12.20;100192.16;5011220;28;20420;-78
2022/05/30 04:10:34;;;;;;;7.90;3.22;;;;;;;38.29;13.86;100201.38;4985975;28;20049;-80
2022/05/30 04:13:24;;;;;;;5.45;3.50;;;;;;;33.44;17.60;100194.06;4977573;28;20057;-80
2022/05/30 04:16:12;;;;;;;7.78;3.60;;;;;;;29.94;21.12;100201.06;5021924;28;20434;-81
2022/05/30 04:18:41;;;;;;;6.90;4.13;;;;;;;27.95;23.79;100208.13;5018063;28;20064;-80
2022/05/30 04:21:10;;;;;;;5.00;3.40;;;;;;;26.54;25.97;100209.41;5011502;28;20050;-79
2022/05/30 04:23:41;;;;;;;9.80;3.28;;;;;;;25.82;26.66;100210.72;4997455;28;20058;-78
2022/05/30 04:26:16;;;;;;;6.85;3.67;;;;;;;24.82;28.24;100210.53;5003398;28;20053;-78
2022/05/30 04:28:49;;;;;;;10.93;3.50;;;;;;;24.27;29.25;100208.75;5017036;28;20061;-78
2022/05/30 04:31:45;;;;;;;7.32;3.00;;;;;;;24.20;28.82;100218.00;5001724;28;20045;-79
2022/05/30 04:34:13;;;;;;;7.97;3.20;;;;;;;23.84;29.16;100223.25;4991871;28;20049;-78
2022/05/30 04:36:40;;;;;;;7.60;3.20;;;;;;;23.50;29.65;100233.59;5015534;28;20060;-77
2022/05/30 04:39:07;;;;;;;9.27;3.42;;;;;;;23.21;30.36;100253.53;4997161;28;20064;-82
2022/05/30 04:41:53;;;;;;;6.55;2.78;;;;;;;22.84;31.34;100230.19;5014613;28;20054;-78
2022/05/30 04:44:42;;;;;;;6.07;2.83;;;;;;;22.31;32.19;100235.91;4997692;28;20054;-79
2022/05/30 04:47:35;;;;;;;8.07;3.00;;;;;;;21.87;33.52;100249.94;5006836;28;20057;-79
2022/05/30 04:50:08;;;;;;;9.40;3.38;;;;;;;21.64;34.13;100246.34;5019025;28;20061;-79
2022/05/30 04:52:42;;;;;;;7.47;3.78;;;;;;;21.45;34.66;100242.59;4998608;28;20062;-78
2022/05/30 04:55:35;;;;;;;9.18;3.78;;;;;;;21.50;34.77;100237.13;4986552;28;20084;-77
2022/05/30 04:58:06;;;;;;;8.57;3.33;;;;;;;21.55;34.62;100257.28;5001128;28;20050;-76
2022/05/30 05:00:47;;;;;;;8.65;3.45;;;;;;;21.25;34.85;100232.63;4997441;28;20050;-78
2022/05/30 05:03:24;;;;;;;10.18;3.83;;;;;;;21.13;35.21;100233.06;4981504;28;20050;-77
2022/05/30 05:06:11;;;;;;;9.05;4.40;;;;;;;20.96;35.87;100237.16;4997511;28;20054;-78
2022/05/30 05:08:51;;;;;;;7.65;3.38;;;;;;;20.98;35.69;100237.09;4997523;28;20053;-78
2022/05/30 05:11:37;;;;;;;7.00;3.40;;;;;;;20.86;36.16;100239.25;5014296;28;20405;-79
2022/05/30 05:14:18;;;;;;;6.97;2.80;;;;;;;20.92;35.13;100240.81;5014781;28;20064;-78
2022/05/30 05:17:07;;;;;;;8.23;3.10;;;;;;;20.97;34.73;100230.03;5014590;28;20100;-81
2022/05/30 05:19:39;;;;;;;5.28;3.20;;;;;;;21.15;34.81;100239.19;5004751;28;20469;-79
2022/05/30 05:22:14;;;;;;;9.35;3.17;;;;;;;21.13;34.52;100241.03;5006778;28;20099;-79
2022/05/30 05:24:43;;;;;;;5.43;2.80;;;;;;;21.15;34.43;100242.72;5005950;28;20573;-78
2022/05/30 05:27:50;;;;;;;8.02;3.17;;;;;;;21.08;34.35;100251.81;4927868;29;20056;-79
2022/05/30 05:30:19;;;;;;;10.45;3.20;;;;;;;21.05;34.95;100254.56;4936663;29;20049;-79
2022/05/30 05:32:48;;;;;;;9.07;2.97;;;;;;;21.03;34.61;100240.47;4973958;28;20064;-78
2022/05/30 05:35:17;;;;;;;7.28;3.10;;;;;;;21.09;34.71;100256.19;5001296;28;20053;-76
2022/05/30 05:37:45;;;;;;;7.75;2.92;;;;;;;21.15;33.98;100263.09;5001436;28;20056;-78
2022/05/30 05:40:42;;;;;;;7.80;2.67;;;;;;;21.10;33.71;100265.03;4998542;28;20092;-78
2022/05/30 05:43:12;;;;;;;4.35;2.28;;;;;;;21.00;34.32;100260.03;4996927;28;20081;-79
2022/05/30 05:45:43;;;;;;;7.70;3.03;;;;;;;20.84;34.86;100245.50;4997246;28;20053;-80
2022/05/30 05:48:11;;;;;;;;;;;;;;;20.57;34.96;100256.13;4997132;28;20144;-80
2022/05/30 05:50:40;;;;;;;3.25;2.10;;;;;;;20.77;34.69;100225.41;5011922;28;19931;-79
2022/05/30 05:53:11;;;;;;;5.55;2.70;;;;;;;21.09;34.56;100247.38;5016898;28;20080;-80
2022/05/30 05:55:43;;;;;;;5.32;2.83;;;;;;;21.23;34.50;100259.25;5016329;28;20045;-81
2022/05/30 05:58:12;;;;;;;6.30;2.45;;;;;;;21.20;34.78;100251.38;5016195;28;20085;-79
2022/05/30 06:00:42;;;;;;;5.60;2.40;;;;;;;21.30;34.45;100251.09;5015989;28;20059;-78
2022/05/30 06:03:11;;;;;;;8.05;2.78;;;;;;;21.21;34.97;100237.19;5016108;28;20053;-78
2022/05/30 06:06:05;;;;;;;8.15;2.47;;;;;;;21.36;34.83;100257.06;5014653;28;20143;-79
2022/05/30 06:08:48;;;;;;;7.78;2.72;;;;;;;21.34;34.59;100244.72;4996450;28;20057;-79
2022/05/30 06:11:21;;;;;;;4.70;2.47;;;;;;;21.40;34.39;100255.13;5013648;28;20079;-78
2022/05/30 06:13:55;;;;;;;5.93;2.28;;;;;;;21.43;34.03;100265.72;4996415;28;20499;-77
2022/05/30 06:16:27;;;;;;;7.53;2.50;;;;;;;21.46;34.52;100258.47;5008912;28;20095;-80
2022/05/30 06:18:56;;;;;;;5.38;1.90;;;;;;;21.27;33.67;100260.00;5015342;28;20055;-77
2022/05/30 06:21:27;;;;;;;2.95;1.90;;;;;;;21.12;33.68;100260.53;5008831;28;20125;-77
2022/05/30 06:23:55;;;;;;;4.95;1.98;;;;;;;20.99;34.33;100258.31;4998997;28;20053;-80
2022/05/30 06:26:45;;;;;;;7.45;2.03;;;;;;;21.07;33.85;100261.56;5033347;28;20099;-79
2022/05/30 06:29:28;;;;;;;4.68;1.73;;;;;;;21.07;33.58;100253.59;5015750;28;20049;-79
2022/05/30 06:31:58;;;;;;;2.88;1.75;;;;;;;21.09;32.87;100260.66;5033086;28;20140;-79
2022/05/30 06:34:34;;;;;;;4.95;1.80;;;;;;;20.83;33.70;100263.25;5015407;28;20470;-77
2022/05/30 06:37:04;;;;;;;4.07;1.67;;;;;;;20.91;32.51;100257.69;5015658;28;20152;-79
2022/05/30 06:39:32;;;;;;;8.10;1.98;;;;;;;21.07;32.62;100253.59;5016747;28;20057;-77
2022/05/30 06:42:09;;;;;;;4.90;1.67;;;;;;;21.04;32.45;100243.09;5032874;28;20060;-78
2022/05/30 06:45:09;;;;;;;4.15;1.90;;;;;;;20.91;32.92;100241.75;4969574;28;20053;-80
2022/05/30 06:47:40;;;;;;;5.35;2.10;;;;;;;20.76;32.96;100242.28;5001756;28;20519;-78
2022/05/30 06:50:28;;;;;;;7.55;1.70;;;;;;;20.66;32.57;100265.56;5019851;28;20050;-79
2022/05/30 06:52:57;;;;;;;6.72;1.80;;;;;;;20.48;32.80;100264.34;5004092;28;20053;-78
2022/05/30 06:55:24;;;;;;;9.75;2.08;;;;;;;20.58;33.60;100275.56;5005978;28;20483;-78
2022/05/30 07:01:01;;;;;;;6.50;2.03;;;;;;;20.78;32.69;100273.16;4987717;28;20110;-78
2022/05/30 07:03:31;;;;;;;2.92;1.85;;;;;;;20.75;32.58;100275.03;5010870;28;20054;-79
2022/05/30 07:06:27;;;;;;;6.60;1.90;;;;;;;20.84;31.53;100272.97;4972029;28;20060;-77
2022/05/30 07:09:14;;;;;;;3.45;1.33;;;;;;;20.86;30.93;100249.88;4997356;28;20045;-78
2022/05/30 07:12:10;;;;;;;5.80;2.22;;;;;;;21.11;31.13;100280.91;5029327;28;20443;-77
2022/05/30 07:14:38;;;;;;;5.05;1.77;;;;;;;21.05;31.64;100274.00;5006165;28;20046;-77
2022/05/30 07:17:10;;;;;;;3.72;1.95;;;;;;;21.17;31.56;100278.06;4976230;28;20145;-78
2022/05/30 07:19:37;;;;;;;7.82;2.00;;;;;;;21.11;31.66;100274.75;4989857;28;20047;-79
2022/05/30 07:22:07;;;;;;;3.63;1.70;;;;;;;20.91;31.61;100273.63;4979786;28;20050;-78
2022/05/30 07:25:15;;;;;;;6.45;1.98;;;;;;;20.66;32.32;100269.09;4997337;28;20065;-78
2022/05/30 07:28:03;;;;;;;4.30;2.00;;;;;;;20.73;32.37;100284.81;5000259;28;20064;-76
2022/05/30 07:31:08;;;;;;;4.50;2.00;;;;;;;20.89;31.89;100278.13;5004131;28;20050;-79
2022/05/30 07:33:55;;;;;;;7.83;4.33;;;;;;;20.91;31.96;100286.00;4989441;28;20100;-76
2022/05/30 07:37:00;;;;;;;7.22;2.30;;;;;;;21.18;31.90;100285.09;4975198;28;20076;-78
2022/05/30 07:39:49;;;;;;;4.57;2.60;;;;;;;21.18;31.47;100255.88;4982255;28;20058;-79
2022/05/30 07:42:49;;;;;;;2.70;2.17;;;;;;;21.22;30.88;100280.56;4948321;28;20042;-81
2022/05/30 07:45:46;;;;;;;7.10;2.20;;;;;;;21.37;31.23;100298.63;4956097;28;20162;-78
2022/05/30 07:48:38;;;;;;;5.93;2.20;;;;;;;21.53;30.62;100293.72;4994699;28;20042;-79
2022/05/30 07:51:22;;;;;;;6.32;3.10;;;;;;;21.61;30.30;100285.44;4983348;28;20062;-79
2022/05/30 07:54:18;;;;;;;5.93;2.28;;;;;;;21.24;30.52;100274.28;4992007;28;20058;-78
2022/05/30 07:56:59;;;;;;;3.60;1.75;;;;;;;21.37;30.60;100295.13;4983034;28;20046;-78
2022/05/30 07:59:29;;;;;;;5.15;1.67;;;;;;;21.43;30.82;100301.13;4983500;28;20523;-78
2022/05/30 08:01:58;;;;;;;6.28;3.28;;;;;;;21.38;30.36;100300.38;4975256;28;20057;-78
2022/05/30 08:04:28;;;;;;;7.95;2.38;;;;;;;21.12;30.31;100318.97;4989190;28;20077;-78
2022/05/30 08:06:59;;;;;;;5.50;2.00;;;;;;;20.92;30.54;100296.59;4996292;28;20054;-77
2022/05/30 08:09:47;;;;;;;10.27;5.18;;;;;;;20.98;30.52;100319.44;4985652;28;20078;-78
2022/05/30 08:12:21;;;;;;;4.03;2.50;;;;;;;21.17;29.95;100309.06;4979083;28;20062;-79
2022/05/30 08:14:55;;;;;;;4.45;1.73;;;;;;;21.29;30.36;100311.31;4996646;28;20153;-79
2022/05/30 08:17:26;;;;;;;4.18;1.38;;;;;;;21.32;30.72;100313.88;4994927;28;20058;-77
2022/05/30 08:19:55;;;;;;;5.05;2.40;;;;;;;21.12;30.31;100279.13;4978771;28;20141;-78
2022/05/30 08:22:34;;;;;;;3.58;1.30;;;;;;;21.04;29.70;100308.63;4987426;28;20173;-80
2022/05/30 08:25:05;;;;;;;3.80;1.40;;;;;;;21.14;30.15;100315.34;4996576;28;20062;-79
2022/05/30 08:27:35;;;;;;;3.97;1.60;;;;;;;21.10;29.64;100323.47;4962637;28;20081;-80
2022/05/30 08:30:05;;;;;;;2.80;1.40;;;;;;;20.92;29.53;100340.88;4978745;28;20081;-78
2022/05/30 08:32:42;;;;;;;6.72;1.40;;;;;;;20.89;28.90;100325.91;4978656;28;20062;-79
2022/05/30 08:35:28;;;;;;;2.70;1.38;;;;;;;21.09;29.38;100342.97;4995499;28;20186;-79
2022/05/30 08:37:58;;;;;;;3.90;1.40;;;;;;;21.17;29.85;100335.63;4978415;28;20488;-80
2022/05/30 08:43:37;;;;;;;3.13;1.70;;;;;;;21.32;28.69;100355.53;4962104;28;20046;-81
2022/05/30 08:46:57;;;;;;;10.13;6.93;;;;;;;21.47;28.90;100349.72;4977202;28;20062;-80
2022/05/30 08:49:45;;;;;;;5.15;3.58;;;;;;;21.43;28.78;100327.69;4961882;28;20057;-78
2022/05/30 08:52:50;;;;;;;4.03;1.58;;;;;;;21.53;28.87;100349.53;4978136;28;20074;-79
2022/05/30 08:55:28;;;;;;;4.20;1.60;;;;;;;21.35;29.28;100318.22;4963045;28;20519;-80
2022/05/30 08:58:16;;;;;;;4.75;1.45;;;;;;;21.48;28.60;100351.44;4978786;28;20542;-79
2022/05/30 09:00:51;;;;;;;2.17;1.20;;;;;;;21.46;28.64;100342.66;4978500;28;20050;-78
2022/05/30 09:03:36;;;;;;;;;;;;;;;21.32;29.37;100353.72;4996204;28;20057;-77
2022/05/30 09:06:27;;;;;;;2.50;1.30;;;;;;;21.27;29.84;100337.94;4978736;28;20027;-78
2022/05/30 09:09:11;;;;;;;4.03;1.55;;;;;;;21.18;29.35;100354.16;4978024;28;20417;-78
2022/05/30 09:12:28;;;;;;;2.38;1.33;;;;;;;21.03;29.79;100336.06;5002015;28;20056;-78
2022/05/30 09:15:23;;;;;;;2.85;1.42;;;;;;;21.21;29.48;100346.13;4971372;28;20054;-78
2022/05/30 09:18:09;;;;;;;2.60;1.40;;;;;;;21.13;30.18;100347.28;5007089;28;20049;-78
2022/05/30 09:20:38;;;;;;;4.35;1.50;;;;;;;21.13;29.97;100344.63;5015022;28;20107;-78
2022/05/30 09:23:10;;;;;;;3.15;1.58;;;;;;;21.02;29.86;100345.84;5003794;28;20053;-78
2022/05/30 09:29:10;;;;;;;2.03;1.50;;;;;;;20.97;29.89;100337.16;4976879;28;20054;-76
2022/05/30 09:32:28;;;;;;;1.60;1.48;;;;;;;21.19;30.16;100345.28;5011240;28;20057;-78
2022/05/30 09:35:24;;;;;;;6.47;2.10;;;;;;;21.33;29.42;100341.31;4966036;28;20085;-76
2022/05/30 09:38:20;;;;;;;2.47;1.92;;;;;;;21.53;30.07;100332.69;5003387;28;20041;-78
2022/05/30 09:41:14;;;;;;;3.38;1.50;;;;;;;21.46;29.39;100324.91;5033886;28;20052;-81
2022/05/30 09:44:03;;;;;;;4.97;1.50;;;;;;;21.54;29.64;100327.31;5015858;28;20414;-78
2022/05/30 09:46:42;;;;;;;2.58;1.33;;;;;;;21.32;29.12;100328.94;5009288;28;20145;-78
2022/05/30 09:49:51;;;;;;;4.03;1.30;;;;;;;21.22;28.75;100325.72;4994758;28;20054;-77
2022/05/30 09:52:27;;;;;;;2.53;1.50;;;;;;;21.17;29.18;100335.63;4996119;28;20497;-77
2022/05/30 09:55:01;;;;;;;1.83;1.40;;;;;;;21.22;29.29;100333.69;5008272;28;20087;-80
2022/05/30 09:57:44;;;;;;;2.30;1.23;;;;;;;21.19;29.31;100341.78;5016035;28;20060;-78
2022/05/30 10:00:40;;;;;;;2.20;1.10;;;;;;;21.37;29.35;100343.81;5015729;28;20053;-79
2022/05/30 10:03:11;;;;;;;;;;;;;;;21.26;29.61;100341.50;5001224;28;20053;-79
2022/05/30 10:05:40;;;;;;;3.50;1.40;;;;;;;21.31;29.09;100338.69;4998807;28;20394;-78
2022/05/30 10:08:41;;;;;;;2.33;1.40;;;;;;;21.10;29.10;100342.06;5016441;28;20053;-79
2022/05/30 10:11:32;;;;;;;3.50;1.73;;;;;;;21.19;29.15;100342.63;5017087;28;20071;-77
2022/05/30 10:14:24;;;;;;;3.65;2.80;;;;;;;21.46;29.35;100348.81;5015870;28;20053;-80
2022/05/30 10:17:27;;;;;;;2.75;1.70;;;;;;;21.75;28.80;100354.94;4999299;28;20070;-78
2022/05/30 10:20:02;;;;;;;2.40;1.17;;;;;;;21.78;28.93;100338.03;4996206;28;20058;-77
2022/05/30 10:30:44;;;;;;;2.22;1.40;;;;;;;21.60;29.13;100324.44;4994807;28;20066;-81
2022/05/30 10:33:54;;;;;;;2.17;1.25;;;;;;;21.18;29.30;100332.06;4979915;28;20051;-80
2022/05/30 10:36:26;;;;;;;2.40;1.33;;;;;;;20.81;29.77;100323.47;4993528;28;20054;-80
2022/05/30 10:39:17;;;;;;;1.65;1.40;;;;;;;20.85;30.08;100324.25;4994393;28;20050;-80
2022/05/30 10:41:53;;;;;;;3.13;2.03;;;;;;;21.06;29.79;100312.94;4988075;28;20070;-79
2022/05/30 10:44:26;;;;;;;5.43;1.40;;;;;;;21.32;29.80;100324.50;4992886;28;20058;-78
2022/05/30 10:47:27;;;;;;;3.08;1.60;;;;;;;21.42;29.40;100320.66;4959885;28;20140;-81
2022/05/30 10:50:05;;;;;;;2.60;1.60;;;;;;;21.60;29.57;100327.09;4966235;28;20136;-80
2022/05/30 10:52:44;;;;;;;1.80;1.67;;;;;;;21.75;28.68;100331.03;4974666;28;20058;-78
2022/05/30 10:55:25;;;;;;;1.88;1.20;;;;;;;21.52;28.55;100318.53;4975241;28;20049;-79
2022/05/30 10:58:06;;;;;;;1.90;1.20;;;;;;;21.41;28.78;100318.91;4948515;28;20055;-79
2022/05/30 11:00:50;;;;;;;2.65;1.38;;;;;;;21.44;28.93;100313.47;4971658;28;20432;-80
2022/05/30 11:03:32;;;;;;;2.97;1.65;;;;;;;21.14;30.83;100279.94;4974479;28;20146;-77
2022/05/30 11:06:09;;;;;;;1.75;1.30;;;;;;;21.34;30.30;100306.72;4974456;28;20428;-79
2022/05/30 11:09:12;;;;;;;2.53;1.55;;;;;;;21.42;31.01;100311.78;4974894;28;20054;-79
2022/05/30 11:11:48;;;;;;;2.78;1.17;;;;;;;21.53;28.84;100300.78;4974867;28;20062;-77
2022/05/30 11:14:47;;;;;;;2.35;1.50;;;;;;;21.57;28.45;100299.75;4974698;28;20104;-78
2022/05/30 11:17:51;;;;;;;4.63;1.35;;;;;;;21.55;27.61;100304.25;4993061;28;20050;-78
2022/05/30 11:20:37;;;;;;;1.50;0.90;;;;;;;21.28;27.84;100301.59;4996118;28;20046;-78
2022/05/30 11:23:07;;;;;;;1.30;1.20;;;;;;;21.01;27.80;100258.25;4958243;28;20073;-78
2022/05/30 11:26:00;;;;;;;3.58;1.05;;;;;;;21.18;28.43;100287.75;4988715;28;20057;-79
2022/05/30 11:28:39;;;;;;;2.08;1.05;;;;;;;21.39;27.58;100280.00;4960779;28;20068;-80
2022/05/30 11:31:50;;;;;;;2.03;1.20;;;;;;;21.48;27.86;100283.22;4971701;28;20062;-78
2022/05/30 11:34:44;;;;;;;1.25;1.15;;;;;;;21.45;27.86;100258.56;4972673;28;20050;-79
2022/05/30 11:37:29;;;;;;;2.28;1.10;;;;;;;21.53;27.53;100287.50;4967340;28;20140;-80
2022/05/30 11:40:12;;;;;;;4.53;3.40;;;;;;;21.50;27.94;100277.00;4994630;28;20088;-79
2022/05/30 11:43:03;;;;;;;1.80;1.15;;;;;;;21.25;27.34;100240.59;4978667;28;20054;-80
2022/05/30 11:45:53;;;;;;;2.95;1.67;;;;;;;21.33;27.15;100256.28;4976015;28;20519;-78
2022/05/30 11:48:29;;;;;;;1.38;1.17;;;;;;;21.31;27.75;100261.63;4993397;28;20104;-78
2022/05/30 11:51:06;;;;;;;3.03;1.23;;;;;;;21.21;28.10;100249.63;4992815;28;20471;-78
2022/05/30 11:53:50;;;;;;;1.75;1.10;;;;;;;21.27;28.19;100254.69;4993871;28;20538;-79
2022/05/30 11:56:48;;;;;;;1.35;1.20;;;;;;;21.13;28.29;100238.38;4993199;28;20500;-77
2022/05/30 11:59:34;;;;;;;6.13;1.80;;;;;;;21.19;28.16;100260.28;4993394;28;20080;-77
2022/05/30 12:02:16;;;;;;;1.85;1.52;;;;;;;21.14;28.39;100256.91;4992863;28;20496;-79
2022/05/30 12:05:11;;;;;;;3.00;1.20;;;;;;;21.12;28.43;100258.75;4992850;28;20062;-77
2022/05/30 12:08:12;;;;;;;1.80;1.20;;;;;;;21.04;28.59;100229.81;4992831;28;20046;-79
2022/05/30 12:11:25;;;;;;;2.30;1.20;;;;;;;21.23;28.87;100237.13;4974903;28;20061;-78
2022/05/30 12:14:07;;;;;;;1.25;1.15;;;;;;;21.54;28.46;100241.41;4894003;29;20053;-77
2022/05/30 12:16:47;;;;;;;3.40;1.30;;;;;;;21.54;28.47;100230.78;4990343;28;20424;-80
2022/05/30 12:25:00;;;;;;;4.45;1.30;;;;;;;21.41;28.91;100244.50;4994672;28;20058;-78
2022/05/30 12:27:28;;;;;;;1.60;1.00;;;;;;;21.36;29.08;100237.56;4994941;28;20405;-77
2022/05/30 12:29:56;;;;;;;3.42;2.30;;;;;;;21.40;29.22;100240.09;4995371;28;20074;-78
2022/05/30 12:32:36;;;;;;;5.05;3.28;;;;;;;21.38;28.73;100225.97;4995253;28;20058;-78
2022/05/30 12:35:13;;;;;;;6.95;2.30;;;;;;;21.62;28.85;100226.91;4991504;28;20058;-78
2022/05/30 12:37:57;;;;;;;2.38;1.27;;;;;;;21.69;28.83;100232.88;4975963;28;20137;-78
2022/05/30 12:40:28;;;;;;;5.15;1.30;;;;;;;21.83;28.62;100225.25;4975807;28;20409;-79
2022/05/30 12:43:02;;;;;;;1.52;1.13;;;;;;;22.03;28.29;100234.28;4976421;28;20054;-80
2022/05/30 12:45:54;;;;;;;1.20;1.10;;;;;;;22.07;28.14;100242.09;4975878;28;20105;-80
2022/05/30 12:48:44;;;;;;;2.03;1.40;;;;;;;22.11;28.10;100234.81;4959553;28;20081;-78
2022/05/30 12:51:33;;;;;;;2.45;1.67;;;;;;;22.08;28.31;100241.13;4976277;28;20059;-76